sensor_id;sensor_type;location;lat;lon;timestamp;P1;durP1;ratioP1;P2;durP2;ratioP2
71606;SDS011;60641;53.556;9.914;2022-11-15T00:02:20;27.00;;;14.70;;
71606;SDS011;60641;53.556;9.914;2022-11-15T00:04:47;27.10;;;14.10;;
71606;SDS011;60641;53.556;9.914;2022-11-15T00:07:13;24.60;;;13.40;;
71606;SDS011;60641;53.556;9.914;2022-11-15T00:09:39;27.70;;;15.40;;
71606;SDS011;60641;53.556;9.914;2022-11-15T00:12:06;30.70;;;15.40;;
71606;SDS011;60641;53.556;9.914;2022-11-15T00:14:32;28.20;;;15.40;;
71606;SDS011;60641;53.556;9.914;2022-11-15T00:16:59;28.80;;;14.90;;
71606;SDS011;60641;53.556;9.914;2022-11-15T00:19:25;27.40;;;13.50;;
71606;SDS011;60641;53.556;9.914;2022-11-15T00:21:52;26.70;;;13.70;;
71606;SDS011;60641;53.556;9.914;2022-11-15T00:24:18;25.60;;;14.40;;
71606;SDS011;60641;53.556;9.914;2022-11-15T00:26:44;25.00;;;13.80;;
71606;SDS011;60641;53.556;9.914;2022-11-15T00:29:11;26.40;;;13.80;;
71606;SDS011;60641;53.556;9.914;2022-11-15T00:31:37;27.20;;;14.20;;
71606;SDS011;60641;53.556;9.914;2022-11-15T00:34:04;26.30;;;15.00;;
71606;SDS011;60641;53.556;9.914;2022-11-15T00:36:32;28.40;;;15.20;;
71606;SDS011;60641;53.556;9.914;2022-11-15T00:39:00;25.40;;;13.50;;
71606;SDS011;60641;53.556;9.914;2022-11-15T00:41:26;26.60;;;14.20;;
71606;SDS011;60641;53.556;9.914;2022-11-15T00:43:53;26.00;;;13.90;;
71606;SDS011;60641;53.556;9.914;2022-11-15T00:46:19;24.70;;;12.90;;
71606;SDS011;60641;53.556;9.914;2022-11-15T00:48:46;30.20;;;13.30;;
71606;SDS011;60641;53.556;9.914;2022-11-15T00:51:12;26.30;;;14.50;;
71606;SDS011;60641;53.556;9.914;2022-11-15T00:53:39;24.20;;;12.80;;
71606;SDS011;60641;53.556;9.914;2022-11-15T00:56:05;25.40;;;13.50;;
71606;SDS011;60641;53.556;9.914;2022-11-15T00:58:32;26.60;;;14.70;;
71606;SDS011;60641;53.556;9.914;2022-11-15T01:01:05;27.30;;;14.00;;
71606;SDS011;60641;53.556;9.914;2022-11-15T01:03:33;27.50;;;14.20;;
71606;SDS011;60641;53.556;9.914;2022-11-15T01:06:00;23.60;;;12.00;;
71606;SDS011;60641;53.556;9.914;2022-11-15T01:08:27;25.60;;;13.90;;
71606;SDS011;60641;53.556;9.914;2022-11-15T01:10:53;26.40;;;15.30;;
71606;SDS011;60641;53.556;9.914;2022-11-15T01:13:20;20.30;;;10.30;;
71606;SDS011;60641;53.556;9.914;2022-11-15T01:15:46;26.40;;;14.40;;
71606;SDS011;60641;53.556;9.914;2022-11-15T01:18:13;25.70;;;13.90;;
71606;SDS011;60641;53.556;9.914;2022-11-15T01:20:42;25.20;;;12.90;;
71606;SDS011;60641;53.556;9.914;2022-11-15T01:23:09;26.50;;;14.50;;
71606;SDS011;60641;53.556;9.914;2022-11-15T01:25:35;26.50;;;13.90;;
71606;SDS011;60641;53.556;9.914;2022-11-15T01:28:02;26.10;;;12.40;;
71606;SDS011;60641;53.556;9.914;2022-11-15T01:30:28;25.30;;;13.90;;
71606;SDS011;60641;53.556;9.914;2022-11-15T01:32:54;25.10;;;13.20;;
71606;SDS011;60641;53.556;9.914;2022-11-15T01:35:21;24.70;;;13.60;;
71606;SDS011;60641;53.556;9.914;2022-11-15T01:37:47;23.30;;;12.40;;
71606;SDS011;60641;53.556;9.914;2022-11-15T01:40:14;26.20;;;14.10;;
71606;SDS011;60641;53.556;9.914;2022-11-15T01:42:40;25.50;;;13.90;;
71606;SDS011;60641;53.556;9.914;2022-11-15T01:45:12;28.30;;;15.00;;
71606;SDS011;60641;53.556;9.914;2022-11-15T01:47:40;26.80;;;15.00;;
71606;SDS011;60641;53.556;9.914;2022-11-15T01:50:11;27.10;;;14.70;;
71606;SDS011;60641;53.556;9.914;2022-11-15T01:52:40;25.90;;;13.70;;
71606;SDS011;60641;53.556;9.914;2022-11-15T01:57:33;22.90;;;11.80;;
71606;SDS011;60641;53.556;9.914;2022-11-15T02:00:00;24.40;;;14.20;;
71606;SDS011;60641;53.556;9.914;2022-11-15T02:02:27;27.10;;;14.50;;
71606;SDS011;60641;53.556;9.914;2022-11-15T02:04:53;25.70;;;14.80;;
71606;SDS011;60641;53.556;9.914;2022-11-15T02:07:20;26.30;;;13.90;;
71606;SDS011;60641;53.556;9.914;2022-11-15T02:09:47;26.10;;;13.60;;
71606;SDS011;60641;53.556;9.914;2022-11-15T02:12:15;25.50;;;14.20;;
71606;SDS011;60641;53.556;9.914;2022-11-15T02:14:46;26.80;;;14.40;;
71606;SDS011;60641;53.556;9.914;2022-11-15T02:25:41;26.10;;;13.80;;
71606;SDS011;60641;53.556;9.914;2022-11-15T02:31:14;21.80;;;11.40;;
71606;SDS011;60641;53.556;9.914;2022-11-15T02:36:34;24.00;;;12.90;;
71606;SDS011;60641;53.556;9.914;2022-11-15T02:44:32;25.60;;;13.40;;
71606;SDS011;60641;53.556;9.914;2022-11-15T02:47:06;22.70;;;12.90;;
71606;SDS011;60641;53.556;9.914;2022-11-15T02:49:41;26.50;;;13.30;;
71606;SDS011;60641;53.556;9.914;2022-11-15T02:52:13;24.20;;;13.20;;
71606;SDS011;60641;53.556;9.914;2022-11-15T02:54:52;23.50;;;12.30;;
71606;SDS011;60641;53.556;9.914;2022-11-15T02:57:21;25.40;;;13.10;;
71606;SDS011;60641;53.556;9.914;2022-11-15T03:00:09;25.10;;;13.80;;
71606;SDS011;60641;53.556;9.914;2022-11-15T03:02:42;27.00;;;13.60;;
71606;SDS011;60641;53.556;9.914;2022-11-15T03:10:48;24.90;;;13.50;;
71606;SDS011;60641;53.556;9.914;2022-11-15T03:13:26;24.40;;;13.60;;
71606;SDS011;60641;53.556;9.914;2022-11-15T03:16:03;27.60;;;14.20;;
71606;SDS011;60641;53.556;9.914;2022-11-15T03:18:41;24.60;;;13.20;;
71606;SDS011;60641;53.556;9.914;2022-11-15T03:21:14;25.40;;;13.50;;
71606;SDS011;60641;53.556;9.914;2022-11-15T03:23:41;21.30;;;12.00;;
71606;SDS011;60641;53.556;9.914;2022-11-15T03:26:09;24.10;;;13.00;;
71606;SDS011;60641;53.556;9.914;2022-11-15T03:28:50;24.80;;;13.40;;
71606;SDS011;60641;53.556;9.914;2022-11-15T03:31:19;23.40;;;13.10;;
71606;SDS011;60641;53.556;9.914;2022-11-15T03:34:06;24.00;;;13.40;;
71606;SDS011;60641;53.556;9.914;2022-11-15T03:36:33;22.40;;;12.30;;
71606;SDS011;60641;53.556;9.914;2022-11-15T03:39:02;24.30;;;13.00;;
71606;SDS011;60641;53.556;9.914;2022-11-15T03:41:56;22.30;;;12.20;;
71606;SDS011;60641;53.556;9.914;2022-11-15T03:44:40;22.80;;;11.90;;
71606;SDS011;60641;53.556;9.914;2022-11-15T03:47:58;23.00;;;12.40;;
71606;SDS011;60641;53.556;9.914;2022-11-15T03:50:17;21.60;;;11.60;;
71606;SDS011;60641;53.556;9.914;2022-11-15T03:52:46;20.10;;;11.40;;
71606;SDS011;60641;53.556;9.914;2022-11-15T03:55:15;20.50;;;10.90;;
71606;SDS011;60641;53.556;9.914;2022-11-15T03:57:43;23.10;;;12.40;;
71606;SDS011;60641;53.556;9.914;2022-11-15T04:00:11;22.00;;;10.30;;
71606;SDS011;60641;53.556;9.914;2022-11-15T04:02:37;20.30;;;11.30;;
71606;SDS011;60641;53.556;9.914;2022-11-15T04:05:04;21.60;;;12.10;;
71606;SDS011;60641;53.556;9.914;2022-11-15T04:07:30;21.40;;;10.70;;
71606;SDS011;60641;53.556;9.914;2022-11-15T04:09:57;21.20;;;11.30;;
71606;SDS011;60641;53.556;9.914;2022-11-15T04:12:30;20.70;;;10.80;;
71606;SDS011;60641;53.556;9.914;2022-11-15T04:15:04;20.80;;;11.60;;
71606;SDS011;60641;53.556;9.914;2022-11-15T04:20:06;20.50;;;10.60;;
71606;SDS011;60641;53.556;9.914;2022-11-15T04:22:57;19.50;;;10.40;;
71606;SDS011;60641;53.556;9.914;2022-11-15T04:25:43;19.60;;;10.70;;
71606;SDS011;60641;53.556;9.914;2022-11-15T04:28:10;21.70;;;10.70;;
71606;SDS011;60641;53.556;9.914;2022-11-15T04:30:37;19.70;;;11.20;;
71606;SDS011;60641;53.556;9.914;2022-11-15T04:33:03;20.30;;;11.00;;
71606;SDS011;60641;53.556;9.914;2022-11-15T04:35:30;20.00;;;11.20;;
71606;SDS011;60641;53.556;9.914;2022-11-15T04:37:57;21.50;;;10.40;;
71606;SDS011;60641;53.556;9.914;2022-11-15T04:40:24;22.60;;;9.80;;
71606;SDS011;60641;53.556;9.914;2022-11-15T04:42:50;18.80;;;10.60;;
71606;SDS011;60641;53.556;9.914;2022-11-15T04:45:16;22.50;;;10.90;;
71606;SDS011;60641;53.556;9.914;2022-11-15T04:47:43;19.60;;;10.50;;
71606;SDS011;60641;53.556;9.914;2022-11-15T04:50:11;19.60;;;10.90;;
71606;SDS011;60641;53.556;9.914;2022-11-15T04:52:40;22.40;;;12.10;;
71606;SDS011;60641;53.556;9.914;2022-11-15T04:55:09;20.10;;;10.50;;
71606;SDS011;60641;53.556;9.914;2022-11-15T04:57:38;18.70;;;10.60;;
71606;SDS011;60641;53.556;9.914;2022-11-15T05:00:05;20.40;;;10.80;;
71606;SDS011;60641;53.556;9.914;2022-11-15T05:02:37;18.00;;;10.20;;
71606;SDS011;60641;53.556;9.914;2022-11-15T05:05:23;20.20;;;9.80;;
71606;SDS011;60641;53.556;9.914;2022-11-15T05:07:50;16.40;;;8.90;;
71606;SDS011;60641;53.556;9.914;2022-11-15T05:10:17;19.50;;;10.50;;
71606;SDS011;60641;53.556;9.914;2022-11-15T05:12:43;19.30;;;10.30;;
71606;SDS011;60641;53.556;9.914;2022-11-15T05:15:10;20.40;;;10.00;;
71606;SDS011;60641;53.556;9.914;2022-11-15T05:17:36;19.50;;;9.70;;
71606;SDS011;60641;53.556;9.914;2022-11-15T05:20:03;19.10;;;9.60;;
71606;SDS011;60641;53.556;9.914;2022-11-15T05:22:29;19.70;;;10.00;;
71606;SDS011;60641;53.556;9.914;2022-11-15T05:24:57;16.40;;;9.00;;
71606;SDS011;60641;53.556;9.914;2022-11-15T05:27:23;15.70;;;9.00;;
71606;SDS011;60641;53.556;9.914;2022-11-15T05:29:50;15.20;;;7.50;;
71606;SDS011;60641;53.556;9.914;2022-11-15T05:32:16;17.90;;;9.20;;
71606;SDS011;60641;53.556;9.914;2022-11-15T05:34:44;15.20;;;7.60;;
71606;SDS011;60641;53.556;9.914;2022-11-15T05:37:10;20.30;;;10.50;;
71606;SDS011;60641;53.556;9.914;2022-11-15T05:39:36;17.20;;;9.50;;
71606;SDS011;60641;53.556;9.914;2022-11-15T05:42:09;19.30;;;10.30;;
71606;SDS011;60641;53.556;9.914;2022-11-15T05:44:38;17.90;;;9.40;;
71606;SDS011;60641;53.556;9.914;2022-11-15T05:47:08;20.10;;;10.70;;
71606;SDS011;60641;53.556;9.914;2022-11-15T05:49:36;17.60;;;9.30;;
71606;SDS011;60641;53.556;9.914;2022-11-15T05:52:05;17.90;;;9.20;;
71606;SDS011;60641;53.556;9.914;2022-11-15T05:54:33;17.10;;;8.60;;
71606;SDS011;60641;53.556;9.914;2022-11-15T05:57:01;16.40;;;8.80;;
71606;SDS011;60641;53.556;9.914;2022-11-15T05:59:29;17.20;;;9.30;;
71606;SDS011;60641;53.556;9.914;2022-11-15T06:01:56;17.60;;;9.70;;
71606;SDS011;60641;53.556;9.914;2022-11-15T06:04:23;19.30;;;9.20;;
71606;SDS011;60641;53.556;9.914;2022-11-15T06:06:49;17.20;;;9.60;;
71606;SDS011;60641;53.556;9.914;2022-11-15T06:09:16;17.60;;;9.50;;
71606;SDS011;60641;53.556;9.914;2022-11-15T06:11:42;19.50;;;9.00;;
71606;SDS011;60641;53.556;9.914;2022-11-15T06:14:09;19.60;;;8.30;;
71606;SDS011;60641;53.556;9.914;2022-11-15T06:16:35;18.30;;;9.30;;
71606;SDS011;60641;53.556;9.914;2022-11-15T06:19:02;19.20;;;9.50;;
71606;SDS011;60641;53.556;9.914;2022-11-15T06:21:28;16.00;;;7.80;;
71606;SDS011;60641;53.556;9.914;2022-11-15T06:23:55;17.80;;;9.20;;
71606;SDS011;60641;53.556;9.914;2022-11-15T06:26:21;19.30;;;9.70;;
71606;SDS011;60641;53.556;9.914;2022-11-15T06:28:48;20.70;;;9.40;;
71606;SDS011;60641;53.556;9.914;2022-11-15T06:31:14;17.10;;;9.20;;
71606;SDS011;60641;53.556;9.914;2022-11-15T06:33:41;18.90;;;9.90;;
71606;SDS011;60641;53.556;9.914;2022-11-15T06:36:08;20.20;;;9.50;;
71606;SDS011;60641;53.556;9.914;2022-11-15T06:38:36;18.70;;;9.30;;
71606;SDS011;60641;53.556;9.914;2022-11-15T06:41:03;18.10;;;9.40;;
71606;SDS011;60641;53.556;9.914;2022-11-15T06:43:31;18.60;;;10.20;;
71606;SDS011;60641;53.556;9.914;2022-11-15T06:45:59;17.50;;;9.80;;
71606;SDS011;60641;53.556;9.914;2022-11-15T06:48:26;20.30;;;9.90;;
71606;SDS011;60641;53.556;9.914;2022-11-15T06:50:53;20.30;;;9.80;;
71606;SDS011;60641;53.556;9.914;2022-11-15T06:53:21;19.50;;;10.60;;
71606;SDS011;60641;53.556;9.914;2022-11-15T06:55:48;18.70;;;9.90;;
71606;SDS011;60641;53.556;9.914;2022-11-15T06:58:15;20.40;;;9.90;;
71606;SDS011;60641;53.556;9.914;2022-11-15T07:00:42;17.30;;;9.50;;
71606;SDS011;60641;53.556;9.914;2022-11-15T07:03:10;19.40;;;9.60;;
71606;SDS011;60641;53.556;9.914;2022-11-15T07:05:56;18.30;;;9.20;;
71606;SDS011;60641;53.556;9.914;2022-11-15T07:08:26;23.00;;;10.70;;
71606;SDS011;60641;53.556;9.914;2022-11-15T07:11:00;19.40;;;10.20;;
71606;SDS011;60641;53.556;9.914;2022-11-15T07:13:29;17.90;;;10.20;;
71606;SDS011;60641;53.556;9.914;2022-11-15T07:16:05;17.60;;;10.00;;
71606;SDS011;60641;53.556;9.914;2022-11-15T07:18:34;18.80;;;9.40;;
71606;SDS011;60641;53.556;9.914;2022-11-15T07:21:05;17.30;;;8.30;;
71606;SDS011;60641;53.556;9.914;2022-11-15T07:23:36;21.70;;;9.80;;
71606;SDS011;60641;53.556;9.914;2022-11-15T07:26:06;19.00;;;9.70;;
71606;SDS011;60641;53.556;9.914;2022-11-15T07:28:33;18.50;;;10.20;;
71606;SDS011;60641;53.556;9.914;2022-11-15T07:31:04;18.30;;;9.40;;
71606;SDS011;60641;53.556;9.914;2022-11-15T07:33:32;20.30;;;9.90;;
71606;SDS011;60641;53.556;9.914;2022-11-15T07:36:03;20.30;;;10.00;;
71606;SDS011;60641;53.556;9.914;2022-11-15T07:38:31;21.20;;;10.70;;
71606;SDS011;60641;53.556;9.914;2022-11-15T07:40:58;17.70;;;10.00;;
71606;SDS011;60641;53.556;9.914;2022-11-15T07:43:26;18.50;;;10.00;;
71606;SDS011;60641;53.556;9.914;2022-11-15T07:45:55;19.10;;;9.90;;
71606;SDS011;60641;53.556;9.914;2022-11-15T07:48:22;17.40;;;10.20;;
71606;SDS011;60641;53.556;9.914;2022-11-15T07:50:49;22.70;;;10.80;;
71606;SDS011;60641;53.556;9.914;2022-11-15T07:53:15;17.10;;;9.10;;
71606;SDS011;60641;53.556;9.914;2022-11-15T07:55:42;19.00;;;10.10;;
71606;SDS011;60641;53.556;9.914;2022-11-15T07:58:09;17.80;;;9.70;;
71606;SDS011;60641;53.556;9.914;2022-11-15T08:00:36;22.20;;;10.70;;
71606;SDS011;60641;53.556;9.914;2022-11-15T08:05:37;16.30;;;8.80;;
71606;SDS011;60641;53.556;9.914;2022-11-15T08:08:05;21.40;;;9.80;;
71606;SDS011;60641;53.556;9.914;2022-11-15T08:10:32;23.10;;;11.90;;
71606;SDS011;60641;53.556;9.914;2022-11-15T08:13:03;20.20;;;9.90;;
71606;SDS011;60641;53.556;9.914;2022-11-15T08:15:32;21.50;;;9.70;;
71606;SDS011;60641;53.556;9.914;2022-11-15T08:18:01;17.90;;;8.70;;
71606;SDS011;60641;53.556;9.914;2022-11-15T08:20:32;19.70;;;9.90;;
71606;SDS011;60641;53.556;9.914;2022-11-15T08:23:01;17.10;;;9.30;;
71606;SDS011;60641;53.556;9.914;2022-11-15T08:25:29;18.60;;;9.30;;
71606;SDS011;60641;53.556;9.914;2022-11-15T08:27:59;18.10;;;9.50;;
71606;SDS011;60641;53.556;9.914;2022-11-15T08:30:27;12.80;;;5.00;;
71606;SDS011;60641;53.556;9.914;2022-11-15T08:32:55;17.00;;;9.10;;
71606;SDS011;60641;53.556;9.914;2022-11-15T08:35:24;15.40;;;7.60;;
71606;SDS011;60641;53.556;9.914;2022-11-15T08:37:52;17.80;;;9.40;;
71606;SDS011;60641;53.556;9.914;2022-11-15T08:40:19;21.60;;;9.70;;
71606;SDS011;60641;53.556;9.914;2022-11-15T08:42:46;17.70;;;9.60;;
71606;SDS011;60641;53.556;9.914;2022-11-15T08:45:13;18.20;;;9.20;;
71606;SDS011;60641;53.556;9.914;2022-11-15T08:47:39;18.40;;;9.60;;
71606;SDS011;60641;53.556;9.914;2022-11-15T08:50:06;19.00;;;8.40;;
71606;SDS011;60641;53.556;9.914;2022-11-15T08:52:33;17.30;;;9.50;;
71606;SDS011;60641;53.556;9.914;2022-11-15T08:54:59;19.80;;;9.00;;
71606;SDS011;60641;53.556;9.914;2022-11-15T08:57:28;16.00;;;8.90;;
71606;SDS011;60641;53.556;9.914;2022-11-15T08:59:55;17.40;;;9.60;;
71606;SDS011;60641;53.556;9.914;2022-11-15T09:02:22;19.30;;;9.20;;
71606;SDS011;60641;53.556;9.914;2022-11-15T09:04:49;18.50;;;8.80;;
71606;SDS011;60641;53.556;9.914;2022-11-15T09:07:15;19.30;;;9.80;;
71606;SDS011;60641;53.556;9.914;2022-11-15T09:09:42;17.10;;;8.70;;
71606;SDS011;60641;53.556;9.914;2022-11-15T09:12:08;17.70;;;9.00;;
71606;SDS011;60641;53.556;9.914;2022-11-15T09:14:35;17.50;;;9.70;;
71606;SDS011;60641;53.556;9.914;2022-11-15T09:17:01;16.60;;;8.80;;
71606;SDS011;60641;53.556;9.914;2022-11-15T09:19:28;17.50;;;8.90;;
71606;SDS011;60641;53.556;9.914;2022-11-15T09:21:54;21.40;;;8.90;;
71606;SDS011;60641;53.556;9.914;2022-11-15T09:24:21;18.20;;;9.20;;
71606;SDS011;60641;53.556;9.914;2022-11-15T09:26:49;16.10;;;8.70;;
71606;SDS011;60641;53.556;9.914;2022-11-15T09:29:16;18.40;;;9.10;;
71606;SDS011;60641;53.556;9.914;2022-11-15T09:31:43;17.10;;;8.90;;
71606;SDS011;60641;53.556;9.914;2022-11-15T09:34:10;18.60;;;9.10;;
71606;SDS011;60641;53.556;9.914;2022-11-15T09:36:37;18.40;;;9.80;;
71606;SDS011;60641;53.556;9.914;2022-11-15T09:39:03;21.20;;;9.70;;
71606;SDS011;60641;53.556;9.914;2022-11-15T09:41:34;18.10;;;9.90;;
71606;SDS011;60641;53.556;9.914;2022-11-15T09:47:17;19.10;;;9.60;;
71606;SDS011;60641;53.556;9.914;2022-11-15T09:49:55;21.60;;;9.60;;
71606;SDS011;60641;53.556;9.914;2022-11-15T09:52:24;19.10;;;9.10;;
71606;SDS011;60641;53.556;9.914;2022-11-15T09:54:51;18.40;;;9.00;;
71606;SDS011;60641;53.556;9.914;2022-11-15T09:57:21;16.20;;;8.50;;
71606;SDS011;60641;53.556;9.914;2022-11-15T10:04:55;18.60;;;9.10;;
71606;SDS011;60641;53.556;9.914;2022-11-15T10:12:19;16.80;;;9.00;;
71606;SDS011;60641;53.556;9.914;2022-11-15T10:14:46;17.10;;;8.90;;
71606;SDS011;60641;53.556;9.914;2022-11-15T10:17:19;15.40;;;7.90;;
71606;SDS011;60641;53.556;9.914;2022-11-15T10:20:12;14.70;;;8.70;;
71606;SDS011;60641;53.556;9.914;2022-11-15T10:22:45;18.70;;;8.90;;
71606;SDS011;60641;53.556;9.914;2022-11-15T10:27:43;19.90;;;8.80;;
71606;SDS011;60641;53.556;9.914;2022-11-15T10:30:21;18.00;;;9.30;;
71606;SDS011;60641;53.556;9.914;2022-11-15T10:32:48;17.00;;;9.00;;
71606;SDS011;60641;53.556;9.914;2022-11-15T10:35:26;17.40;;;8.50;;
71606;SDS011;60641;53.556;9.914;2022-11-15T10:38:07;19.80;;;9.50;;
71606;SDS011;60641;53.556;9.914;2022-11-15T10:40:36;16.80;;;8.60;;
71606;SDS011;60641;53.556;9.914;2022-11-15T10:43:14;13.80;;;5.70;;
71606;SDS011;60641;53.556;9.914;2022-11-15T10:45:42;17.70;;;8.90;;
71606;SDS011;60641;53.556;9.914;2022-11-15T10:50:39;14.90;;;8.60;;
71606;SDS011;60641;53.556;9.914;2022-11-15T10:53:16;19.90;;;9.10;;
71606;SDS011;60641;53.556;9.914;2022-11-15T10:55:43;22.30;;;9.30;;
71606;SDS011;60641;53.556;9.914;2022-11-15T11:00:55;15.20;;;7.60;;
71606;SDS011;60641;53.556;9.914;2022-11-15T11:03:28;20.90;;;9.00;;
71606;SDS011;60641;53.556;9.914;2022-11-15T11:06:18;17.50;;;8.90;;
71606;SDS011;60641;53.556;9.914;2022-11-15T11:08:57;16.60;;;8.60;;
71606;SDS011;60641;53.556;9.914;2022-11-15T11:11:24;15.80;;;7.90;;
71606;SDS011;60641;53.556;9.914;2022-11-15T11:13:51;16.40;;;8.80;;
71606;SDS011;60641;53.556;9.914;2022-11-15T11:16:33;18.00;;;8.90;;
71606;SDS011;60641;53.556;9.914;2022-11-15T11:19:15;17.30;;;8.60;;
71606;SDS011;60641;53.556;9.914;2022-11-15T11:24:45;18.20;;;8.70;;
71606;SDS011;60641;53.556;9.914;2022-11-15T11:30:09;16.90;;;8.40;;
71606;SDS011;60641;53.556;9.914;2022-11-15T11:43:36;14.20;;;7.30;;
71606;SDS011;60641;53.556;9.914;2022-11-15T11:48:48;16.40;;;8.20;;
71606;SDS011;60641;53.556;9.914;2022-11-15T11:51:18;19.30;;;8.00;;
71606;SDS011;60641;53.556;9.914;2022-11-15T11:53:53;16.20;;;7.70;;
71606;SDS011;60641;53.556;9.914;2022-11-15T11:56:28;19.30;;;8.40;;
71606;SDS011;60641;53.556;9.914;2022-11-15T11:58:59;22.40;;;8.90;;
71606;SDS011;60641;53.556;9.914;2022-11-15T12:01:30;17.60;;;8.40;;
71606;SDS011;60641;53.556;9.914;2022-11-15T12:04:17;19.30;;;9.30;;
71606;SDS011;60641;53.556;9.914;2022-11-15T12:09:43;15.40;;;8.50;;
71606;SDS011;60641;53.556;9.914;2022-11-15T12:12:25;14.30;;;7.40;;
71606;SDS011;60641;53.556;9.914;2022-11-15T12:15:04;16.60;;;7.40;;
71606;SDS011;60641;53.556;9.914;2022-11-15T12:17:36;17.70;;;7.50;;
71606;SDS011;60641;53.556;9.914;2022-11-15T12:20:06;16.30;;;7.90;;
71606;SDS011;60641;53.556;9.914;2022-11-15T12:22:43;15.50;;;7.60;;
71606;SDS011;60641;53.556;9.914;2022-11-15T12:25:25;15.70;;;6.90;;
71606;SDS011;60641;53.556;9.914;2022-11-15T12:27:56;13.50;;;6.20;;
71606;SDS011;60641;53.556;9.914;2022-11-15T12:30:23;15.10;;;7.50;;
71606;SDS011;60641;53.556;9.914;2022-11-15T12:32:57;11.40;;;5.40;;
71606;SDS011;60641;53.556;9.914;2022-11-15T12:35:41;13.20;;;6.60;;
71606;SDS011;60641;53.556;9.914;2022-11-15T12:38:09;14.00;;;6.60;;
71606;SDS011;60641;53.556;9.914;2022-11-15T12:40:37;13.40;;;6.40;;
71606;SDS011;60641;53.556;9.914;2022-11-15T12:43:40;16.90;;;7.60;;
71606;SDS011;60641;53.556;9.914;2022-11-15T12:59:52;13.30;;;6.80;;
71606;SDS011;60641;53.556;9.914;2022-11-15T13:02:20;15.40;;;7.00;;
71606;SDS011;60641;53.556;9.914;2022-11-15T13:22:41;16.10;;;7.00;;
71606;SDS011;60641;53.556;9.914;2022-11-15T13:28:39;14.80;;;7.10;;
71606;SDS011;60641;53.556;9.914;2022-11-15T13:34:02;19.30;;;7.60;;
71606;SDS011;60641;53.556;9.914;2022-11-15T13:36:39;17.10;;;6.90;;
71606;SDS011;60641;53.556;9.914;2022-11-15T13:39:12;16.50;;;7.50;;
71606;SDS011;60641;53.556;9.914;2022-11-15T13:42:00;14.20;;;6.80;;
71606;SDS011;60641;53.556;9.914;2022-11-15T13:44:27;14.70;;;7.10;;
71606;SDS011;60641;53.556;9.914;2022-11-15T13:47:04;15.70;;;7.20;;
71606;SDS011;60641;53.556;9.914;2022-11-15T13:49:41;17.90;;;7.80;;
71606;SDS011;60641;53.556;9.914;2022-11-15T13:52:11;14.90;;;7.20;;
71606;SDS011;60641;53.556;9.914;2022-11-15T13:54:47;15.20;;;6.50;;
71606;SDS011;60641;53.556;9.914;2022-11-15T13:57:21;13.20;;;5.90;;
71606;SDS011;60641;53.556;9.914;2022-11-15T13:59:57;14.70;;;6.70;;
71606;SDS011;60641;53.556;9.914;2022-11-15T14:02:31;14.20;;;6.70;;
71606;SDS011;60641;53.556;9.914;2022-11-15T14:05:03;13.00;;;6.60;;
71606;SDS011;60641;53.556;9.914;2022-11-15T14:08:01;17.50;;;6.70;;
71606;SDS011;60641;53.556;9.914;2022-11-15T14:10:31;15.30;;;7.20;;
71606;SDS011;60641;53.556;9.914;2022-11-15T14:12:59;14.80;;;7.00;;
71606;SDS011;60641;53.556;9.914;2022-11-15T14:15:33;13.00;;;6.50;;
71606;SDS011;60641;53.556;9.914;2022-11-15T14:18:02;13.60;;;6.60;;
71606;SDS011;60641;53.556;9.914;2022-11-15T14:20:33;12.40;;;5.70;;
71606;SDS011;60641;53.556;9.914;2022-11-15T14:23:02;14.40;;;6.90;;
71606;SDS011;60641;53.556;9.914;2022-11-15T14:25:54;12.80;;;6.20;;
71606;SDS011;60641;53.556;9.914;2022-11-15T14:30:49;16.90;;;6.50;;
71606;SDS011;60641;53.556;9.914;2022-11-15T14:35:51;16.30;;;7.20;;
71606;SDS011;60641;53.556;9.914;2022-11-15T14:38:18;13.30;;;7.20;;
71606;SDS011;60641;53.556;9.914;2022-11-15T14:40:45;14.30;;;6.80;;
71606;SDS011;60641;53.556;9.914;2022-11-15T14:43:12;11.70;;;5.70;;
71606;SDS011;60641;53.556;9.914;2022-11-15T14:45:39;14.90;;;7.10;;
71606;SDS011;60641;53.556;9.914;2022-11-15T14:48:05;12.70;;;6.10;;
71606;SDS011;60641;53.556;9.914;2022-11-15T14:50:33;13.60;;;6.30;;
71606;SDS011;60641;53.556;9.914;2022-11-15T14:53:00;12.00;;;6.20;;
71606;SDS011;60641;53.556;9.914;2022-11-15T14:55:28;15.10;;;6.70;;
71606;SDS011;60641;53.556;9.914;2022-11-15T14:57:58;12.10;;;5.40;;
71606;SDS011;60641;53.556;9.914;2022-11-15T15:00:25;13.80;;;6.40;;
71606;SDS011;60641;53.556;9.914;2022-11-15T15:02:52;12.40;;;5.30;;
71606;SDS011;60641;53.556;9.914;2022-11-15T15:07:48;14.50;;;6.80;;
71606;SDS011;60641;53.556;9.914;2022-11-15T15:10:15;12.10;;;6.00;;
71606;SDS011;60641;53.556;9.914;2022-11-15T15:12:42;13.00;;;6.70;;
71606;SDS011;60641;53.556;9.914;2022-11-15T15:15:12;13.00;;;6.00;;
71606;SDS011;60641;53.556;9.914;2022-11-15T15:17:43;10.90;;;5.60;;
71606;SDS011;60641;53.556;9.914;2022-11-15T15:20:09;14.10;;;7.20;;
71606;SDS011;60641;53.556;9.914;2022-11-15T15:22:36;13.30;;;6.30;;
71606;SDS011;60641;53.556;9.914;2022-11-15T15:25:07;16.00;;;7.20;;
71606;SDS011;60641;53.556;9.914;2022-11-15T15:27:45;15.00;;;6.90;;
71606;SDS011;60641;53.556;9.914;2022-11-15T15:30:11;12.50;;;6.60;;
71606;SDS011;60641;53.556;9.914;2022-11-15T15:32:38;16.90;;;7.50;;
71606;SDS011;60641;53.556;9.914;2022-11-15T15:35:04;14.20;;;6.90;;
71606;SDS011;60641;53.556;9.914;2022-11-15T15:37:31;14.20;;;6.40;;
71606;SDS011;60641;53.556;9.914;2022-11-15T15:39:59;19.00;;;7.00;;
71606;SDS011;60641;53.556;9.914;2022-11-15T15:42:26;13.60;;;6.70;;
71606;SDS011;60641;53.556;9.914;2022-11-15T15:44:52;12.40;;;6.20;;
71606;SDS011;60641;53.556;9.914;2022-11-15T15:47:20;12.60;;;5.90;;
71606;SDS011;60641;53.556;9.914;2022-11-15T15:49:48;17.30;;;7.10;;
71606;SDS011;60641;53.556;9.914;2022-11-15T15:52:15;15.20;;;6.80;;
71606;SDS011;60641;53.556;9.914;2022-11-15T15:54:41;13.40;;;7.10;;
71606;SDS011;60641;53.556;9.914;2022-11-15T15:57:08;14.20;;;7.00;;
71606;SDS011;60641;53.556;9.914;2022-11-15T15:59:38;15.60;;;7.30;;
71606;SDS011;60641;53.556;9.914;2022-11-15T16:02:04;14.00;;;6.60;;
71606;SDS011;60641;53.556;9.914;2022-11-15T16:04:31;13.60;;;6.60;;
71606;SDS011;60641;53.556;9.914;2022-11-15T16:07:01;13.20;;;6.30;;
71606;SDS011;60641;53.556;9.914;2022-11-15T16:09:28;14.20;;;5.60;;
71606;SDS011;60641;53.556;9.914;2022-11-15T16:12:13;10.90;;;4.80;;
71606;SDS011;60641;53.556;9.914;2022-11-15T16:14:40;14.80;;;6.90;;
71606;SDS011;60641;53.556;9.914;2022-11-15T16:17:09;13.70;;;5.60;;
71606;SDS011;60641;53.556;9.914;2022-11-15T16:19:46;14.30;;;7.00;;
71606;SDS011;60641;53.556;9.914;2022-11-15T16:22:12;12.40;;;5.00;;
71606;SDS011;60641;53.556;9.914;2022-11-15T16:24:38;15.20;;;6.40;;
71606;SDS011;60641;53.556;9.914;2022-11-15T16:27:05;15.00;;;5.90;;
71606;SDS011;60641;53.556;9.914;2022-11-15T16:29:31;13.50;;;6.60;;
71606;SDS011;60641;53.556;9.914;2022-11-15T16:31:58;11.40;;;5.50;;
71606;SDS011;60641;53.556;9.914;2022-11-15T16:34:24;13.60;;;6.40;;
71606;SDS011;60641;53.556;9.914;2022-11-15T16:36:51;14.90;;;6.60;;
71606;SDS011;60641;53.556;9.914;2022-11-15T16:39:18;13.00;;;6.10;;
71606;SDS011;60641;53.556;9.914;2022-11-15T16:41:45;13.60;;;6.00;;
71606;SDS011;60641;53.556;9.914;2022-11-15T16:44:13;12.90;;;5.80;;
71606;SDS011;60641;53.556;9.914;2022-11-15T16:46:42;10.10;;;4.00;;
71606;SDS011;60641;53.556;9.914;2022-11-15T16:49:12;15.90;;;7.20;;